Airfield :
LOGIN :

Register | Disclaimer

   EN    FR    IT 

 










Legend :    VFR   Marginal VFR   IFR   Intensive IFR   Very Intensive IFR
Visi :
Ceiling :
>= 8 km
>= 3000ft
5 to 8 km
1000 to 3000 ft
1500m to 5 km
500 to 1000 ft
800 to 1500m
200 to 500 ft
< 800m
< 200 ft
Symbols :   Thunderstorms  Fog  Heavy snow  Heavy precipitations  Wind > 20 kt
SIGMETs :     Misc.  Thunderstorms  Icing  Turbulence  Mountain Waves  Volcanic Ashes






- Airport Elevation : 226 ft
- IATA code : BEX


EGUB - RAF Benson

CURRENT METAR :
  • 100923Z 18018KT 9999 -RA BKN017 OVC053 09/07 Q1015 BECMG BKN014 RMK WHT BECMG GRN

EXPIRED METARs :
  • 100850Z 18016KT 9999 BKN019 09/06 Q1016 BECMG 18020G30KT RMK WHT BECMG WHT
  • 100820Z 18014KT 9999 BKN023 BKN080 08/06 Q1016 TEMO 7000 RA BKN014 RMK WHT TEMPO GRN
  • 100750Z 18016KT 9999 SCT028 BKN080 07/05 Q1017 BECMG BKN020 RMK BLU BECMG WHT
  • 100720Z 17013KT 9999 FEW023 BKN090 BKN180 05/04 Q1017 RMK BLU

TAF TAF EGUB
Valid from the 10 at 09:00 until the 10 at 18:00 UTC


100736Z 1009/1018 19020G30KT 9999 BKN025
BECMG 1009/1012 BKN014
TEMPO 1010/1013 7000 RA
PROB30
TEMPO 1011/1017 19030G40KT
TEMPO 1013/1017 4000 RADZ
TEMPO 1017/1018 7000 RA
PROB40
TEMPO 1017/1018 20030G40KT 3000 +RA
ATIS : +44 1491-837766 (x7524)



MET'MAP, your aeronautical weather chart ! - Copyright ORBIFLY December 2007 - Disclaimer

ORBIFLY MET'MAP TEAM :

Programming & Development : Alexandra Zaïnal
Concept & original design : Baudouin d'Aumeries
Assistance for programming : Marc-Olivier Méhu
Technical & hardware support : Manuel Goepfert

Contact : metmap@orbifly.com




SOURCES & CREDITS :

   NOAA